sensor_id;sensor_type;location;lat;lon;timestamp;temperature;humidity
25440;DHT22;13365;52.208;5.488;2023-06-14T00:00:31;21.40;59.50
25440;DHT22;13365;52.208;5.488;2023-06-14T00:02:57;21.30;59.40
25440;DHT22;13365;52.208;5.488;2023-06-14T00:05:23;21.30;59.20
25440;DHT22;13365;52.208;5.488;2023-06-14T00:07:49;21.40;59.30
25440;DHT22;13365;52.208;5.488;2023-06-14T00:10:18;21.40;59.20
25440;DHT22;13365;52.208;5.488;2023-06-14T00:12:44;21.30;59.00
25440;DHT22;13365;52.208;5.488;2023-06-14T00:15:10;21.40;59.00
25440;DHT22;13365;52.208;5.488;2023-06-14T00:17:36;21.40;58.70
25440;DHT22;13365;52.208;5.488;2023-06-14T00:20:03;21.40;58.90
25440;DHT22;13365;52.208;5.488;2023-06-14T00:22:32;21.50;58.70
25440;DHT22;13365;52.208;5.488;2023-06-14T00:24:58;21.50;58.60
25440;DHT22;13365;52.208;5.488;2023-06-14T00:27:23;21.50;58.30
25440;DHT22;13365;52.208;5.488;2023-06-14T00:29:50;21.50;58.40
25440;DHT22;13365;52.208;5.488;2023-06-14T00:32:15;21.70;58.00
25440;DHT22;13365;52.208;5.488;2023-06-14T00:34:41;21.60;58.10
25440;DHT22;13365;52.208;5.488;2023-06-14T00:37:07;21.60;58.10
25440;DHT22;13365;52.208;5.488;2023-06-14T00:39:32;21.60;57.90
25440;DHT22;13365;52.208;5.488;2023-06-14T00:41:58;21.50;57.90
25440;DHT22;13365;52.208;5.488;2023-06-14T00:44:24;21.50;58.10
25440;DHT22;13365;52.208;5.488;2023-06-14T00:46:50;21.50;57.90
25440;DHT22;13365;52.208;5.488;2023-06-14T00:49:17;21.50;58.00
25440;DHT22;13365;52.208;5.488;2023-06-14T00:51:43;21.50;57.70
25440;DHT22;13365;52.208;5.488;2023-06-14T00:54:10;21.40;57.70
25440;DHT22;13365;52.208;5.488;2023-06-14T00:56:36;21.50;57.50
25440;DHT22;13365;52.208;5.488;2023-06-14T00:59:02;21.60;57.40
25440;DHT22;13365;52.208;5.488;2023-06-14T01:01:29;21.60;57.40
25440;DHT22;13365;52.208;5.488;2023-06-14T01:03:58;21.60;57.20
25440;DHT22;13365;52.208;5.488;2023-06-14T01:06:32;21.60;57.30
25440;DHT22;13365;52.208;5.488;2023-06-14T01:11:57;21.50;57.50
25440;DHT22;13365;52.208;5.488;2023-06-14T01:14:25;21.60;57.00
25440;DHT22;13365;52.208;5.488;2023-06-14T01:16:53;21.70;57.10
25440;DHT22;13365;52.208;5.488;2023-06-14T01:19:19;21.80;56.90
25440;DHT22;13365;52.208;5.488;2023-06-14T01:21:47;21.70;56.70
25440;DHT22;13365;52.208;5.488;2023-06-14T01:24:16;21.60;56.80
25440;DHT22;13365;52.208;5.488;2023-06-14T01:26:45;21.50;57.10
25440;DHT22;13365;52.208;5.488;2023-06-14T01:29:17;21.40;57.40
25440;DHT22;13365;52.208;5.488;2023-06-14T01:31:43;21.30;57.50
25440;DHT22;13365;52.208;5.488;2023-06-14T01:34:09;21.30;57.60
25440;DHT22;13365;52.208;5.488;2023-06-14T01:36:36;21.20;57.60
25440;DHT22;13365;52.208;5.488;2023-06-14T01:39:04;21.20;57.80
25440;DHT22;13365;52.208;5.488;2023-06-14T01:41:30;21.00;57.70
25440;DHT22;13365;52.208;5.488;2023-06-14T01:43:57;20.90;58.00
25440;DHT22;13365;52.208;5.488;2023-06-14T01:46:24;21.00;57.90
25440;DHT22;13365;52.208;5.488;2023-06-14T01:48:50;21.00;58.10
25440;DHT22;13365;52.208;5.488;2023-06-14T01:51:16;20.90;58.10
25440;DHT22;13365;52.208;5.488;2023-06-14T01:53:42;20.90;58.20
25440;DHT22;13365;52.208;5.488;2023-06-14T01:56:07;20.90;58.40
25440;DHT22;13365;52.208;5.488;2023-06-14T01:58:33;20.90;58.30
25440;DHT22;13365;52.208;5.488;2023-06-14T02:00:59;20.90;58.20
25440;DHT22;13365;52.208;5.488;2023-06-14T02:03:25;20.90;58.30
25440;DHT22;13365;52.208;5.488;2023-06-14T02:05:51;20.90;58.20
25440;DHT22;13365;52.208;5.488;2023-06-14T02:08:17;20.80;58.50
25440;DHT22;13365;52.208;5.488;2023-06-14T02:10:43;20.70;58.70
25440;DHT22;13365;52.208;5.488;2023-06-14T02:13:09;20.50;59.10
25440;DHT22;13365;52.208;5.488;2023-06-14T02:15:34;20.40;59.40
25440;DHT22;13365;52.208;5.488;2023-06-14T02:18:01;20.40;59.70
25440;DHT22;13365;52.208;5.488;2023-06-14T02:20:27;20.40;59.80
25440;DHT22;13365;52.208;5.488;2023-06-14T02:22:54;20.40;59.80
25440;DHT22;13365;52.208;5.488;2023-06-14T02:25:20;20.40;59.80
25440;DHT22;13365;52.208;5.488;2023-06-14T02:27:45;20.40;59.70
25440;DHT22;13365;52.208;5.488;2023-06-14T02:30:11;20.40;59.80
25440;DHT22;13365;52.208;5.488;2023-06-14T02:32:37;20.30;60.00
25440;DHT22;13365;52.208;5.488;2023-06-14T02:35:04;20.20;60.30
25440;DHT22;13365;52.208;5.488;2023-06-14T02:37:29;20.10;60.60
25440;DHT22;13365;52.208;5.488;2023-06-14T02:39:55;20.10;60.70
25440;DHT22;13365;52.208;5.488;2023-06-14T02:42:21;19.90;61.00
25440;DHT22;13365;52.208;5.488;2023-06-14T02:44:46;19.90;61.20
25440;DHT22;13365;52.208;5.488;2023-06-14T02:47:17;19.90;61.30
25440;DHT22;13365;52.208;5.488;2023-06-14T02:49:42;19.90;61.40
25440;DHT22;13365;52.208;5.488;2023-06-14T02:52:08;19.70;61.50
25440;DHT22;13365;52.208;5.488;2023-06-14T02:54:34;19.80;61.60
25440;DHT22;13365;52.208;5.488;2023-06-14T02:57:00;19.80;61.50
25440;DHT22;13365;52.208;5.488;2023-06-14T02:59:25;19.90;61.30
25440;DHT22;13365;52.208;5.488;2023-06-14T03:01:51;20.00;61.00
25440;DHT22;13365;52.208;5.488;2023-06-14T03:04:17;20.10;60.90
25440;DHT22;13365;52.208;5.488;2023-06-14T03:06:42;20.30;60.60
25440;DHT22;13365;52.208;5.488;2023-06-14T03:09:09;20.40;60.10
25440;DHT22;13365;52.208;5.488;2023-06-14T03:11:35;20.50;60.00
25440;DHT22;13365;52.208;5.488;2023-06-14T03:14:01;20.40;59.80
25440;DHT22;13365;52.208;5.488;2023-06-14T03:16:29;20.50;59.90
25440;DHT22;13365;52.208;5.488;2023-06-14T03:18:55;20.50;59.80
25440;DHT22;13365;52.208;5.488;2023-06-14T03:21:21;20.60;59.70
25440;DHT22;13365;52.208;5.488;2023-06-14T03:23:47;20.50;59.70
25440;DHT22;13365;52.208;5.488;2023-06-14T03:26:14;20.60;59.80
25440;DHT22;13365;52.208;5.488;2023-06-14T03:28:43;20.80;59.30
25440;DHT22;13365;52.208;5.488;2023-06-14T03:31:09;20.70;59.30
25440;DHT22;13365;52.208;5.488;2023-06-14T03:33:34;20.70;59.40
25440;DHT22;13365;52.208;5.488;2023-06-14T03:36:02;20.70;59.60
25440;DHT22;13365;52.208;5.488;2023-06-14T03:38:28;20.80;59.40
25440;DHT22;13365;52.208;5.488;2023-06-14T03:40:54;20.70;59.50
25440;DHT22;13365;52.208;5.488;2023-06-14T03:43:19;20.60;59.60
25440;DHT22;13365;52.208;5.488;2023-06-14T03:45:45;20.60;60.10
25440;DHT22;13365;52.208;5.488;2023-06-14T03:48:11;20.40;60.40
25440;DHT22;13365;52.208;5.488;2023-06-14T03:50:36;20.20;61.10
25440;DHT22;13365;52.208;5.488;2023-06-14T03:53:03;20.10;61.40
25440;DHT22;13365;52.208;5.488;2023-06-14T03:55:29;20.20;61.50
25440;DHT22;13365;52.208;5.488;2023-06-14T03:57:56;20.30;61.50
25440;DHT22;13365;52.208;5.488;2023-06-14T04:00:22;20.30;61.50
25440;DHT22;13365;52.208;5.488;2023-06-14T04:02:48;20.30;61.60
25440;DHT22;13365;52.208;5.488;2023-06-14T04:05:14;20.30;61.70
25440;DHT22;13365;52.208;5.488;2023-06-14T04:07:42;20.30;61.90
25440;DHT22;13365;52.208;5.488;2023-06-14T04:10:11;20.30;62.10
25440;DHT22;13365;52.208;5.488;2023-06-14T04:12:37;20.20;62.00
25440;DHT22;13365;52.208;5.488;2023-06-14T04:15:03;20.30;62.30
25440;DHT22;13365;52.208;5.488;2023-06-14T04:17:31;20.30;62.40
25440;DHT22;13365;52.208;5.488;2023-06-14T04:19:58;20.20;62.70
25440;DHT22;13365;52.208;5.488;2023-06-14T04:22:25;20.20;62.70
25440;DHT22;13365;52.208;5.488;2023-06-14T04:24:54;20.30;63.10
25440;DHT22;13365;52.208;5.488;2023-06-14T04:27:22;20.30;62.90
25440;DHT22;13365;52.208;5.488;2023-06-14T04:29:51;20.30;62.60
25440;DHT22;13365;52.208;5.488;2023-06-14T04:32:23;20.10;62.90
25440;DHT22;13365;52.208;5.488;2023-06-14T04:34:51;20.20;63.40
25440;DHT22;13365;52.208;5.488;2023-06-14T04:37:19;20.20;63.60
25440;DHT22;13365;52.208;5.488;2023-06-14T04:39:46;20.20;63.90
25440;DHT22;13365;52.208;5.488;2023-06-14T04:42:12;20.10;63.90
25440;DHT22;13365;52.208;5.488;2023-06-14T04:44:42;20.20;64.20
25440;DHT22;13365;52.208;5.488;2023-06-14T04:47:09;20.10;63.90
25440;DHT22;13365;52.208;5.488;2023-06-14T04:49:34;20.20;64.40
25440;DHT22;13365;52.208;5.488;2023-06-14T04:52:00;20.20;64.40
25440;DHT22;13365;52.208;5.488;2023-06-14T04:54:26;20.20;64.80
25440;DHT22;13365;52.208;5.488;2023-06-14T04:56:52;20.30;64.60
25440;DHT22;13365;52.208;5.488;2023-06-14T04:59:20;20.30;65.10
25440;DHT22;13365;52.208;5.488;2023-06-14T05:01:51;20.30;64.80
25440;DHT22;13365;52.208;5.488;2023-06-14T05:04:17;20.40;64.40
25440;DHT22;13365;52.208;5.488;2023-06-14T05:06:43;20.40;64.90
25440;DHT22;13365;52.208;5.488;2023-06-14T05:09:14;20.50;64.50
25440;DHT22;13365;52.208;5.488;2023-06-14T05:11:40;20.50;64.30
25440;DHT22;13365;52.208;5.488;2023-06-14T05:14:07;20.80;63.60
25440;DHT22;13365;52.208;5.488;2023-06-14T05:16:33;21.00;63.60
25440;DHT22;13365;52.208;5.488;2023-06-14T05:18:58;20.80;63.20
25440;DHT22;13365;52.208;5.488;2023-06-14T05:21:24;21.00;63.00
25440;DHT22;13365;52.208;5.488;2023-06-14T05:23:50;21.10;62.30
25440;DHT22;13365;52.208;5.488;2023-06-14T05:26:16;21.20;62.90
25440;DHT22;13365;52.208;5.488;2023-06-14T05:28:42;21.50;63.00
25440;DHT22;13365;52.208;5.488;2023-06-14T05:31:07;21.60;61.80
25440;DHT22;13365;52.208;5.488;2023-06-14T05:33:33;21.60;61.70
25440;DHT22;13365;52.208;5.488;2023-06-14T05:35:58;21.50;60.80
25440;DHT22;13365;52.208;5.488;2023-06-14T05:38:24;21.70;61.40
25440;DHT22;13365;52.208;5.488;2023-06-14T05:40:50;22.00;61.00
25440;DHT22;13365;52.208;5.488;2023-06-14T05:43:16;21.80;59.90
25440;DHT22;13365;52.208;5.488;2023-06-14T05:45:41;21.90;60.40
25440;DHT22;13365;52.208;5.488;2023-06-14T05:48:07;22.30;59.80
25440;DHT22;13365;52.208;5.488;2023-06-14T05:50:32;22.40;58.40
25440;DHT22;13365;52.208;5.488;2023-06-14T05:52:59;22.60;58.70
25440;DHT22;13365;52.208;5.488;2023-06-14T05:55:24;22.70;58.10
25440;DHT22;13365;52.208;5.488;2023-06-14T05:57:50;23.00;58.10
25440;DHT22;13365;52.208;5.488;2023-06-14T06:00:16;22.90;57.60
25440;DHT22;13365;52.208;5.488;2023-06-14T06:02:45;23.00;58.70
25440;DHT22;13365;52.208;5.488;2023-06-14T06:05:11;23.20;57.50
25440;DHT22;13365;52.208;5.488;2023-06-14T06:07:38;23.40;58.00
25440;DHT22;13365;52.208;5.488;2023-06-14T06:10:05;23.40;57.30
25440;DHT22;13365;52.208;5.488;2023-06-14T06:12:31;23.30;56.80
25440;DHT22;13365;52.208;5.488;2023-06-14T06:14:58;23.30;57.50
25440;DHT22;13365;52.208;5.488;2023-06-14T06:17:27;23.40;57.70
25440;DHT22;13365;52.208;5.488;2023-06-14T06:19:53;23.50;56.70
25440;DHT22;13365;52.208;5.488;2023-06-14T06:22:19;23.50;56.50
25440;DHT22;13365;52.208;5.488;2023-06-14T06:24:44;23.70;57.20
25440;DHT22;13365;52.208;5.488;2023-06-14T06:27:10;23.80;56.10
25440;DHT22;13365;52.208;5.488;2023-06-14T06:29:37;23.70;56.70
25440;DHT22;13365;52.208;5.488;2023-06-14T06:32:03;23.60;55.50
25440;DHT22;13365;52.208;5.488;2023-06-14T06:34:29;23.60;56.20
25440;DHT22;13365;52.208;5.488;2023-06-14T06:36:54;23.80;56.00
25440;DHT22;13365;52.208;5.488;2023-06-14T06:39:20;24.10;55.80
25440;DHT22;13365;52.208;5.488;2023-06-14T06:41:46;24.30;55.10
25440;DHT22;13365;52.208;5.488;2023-06-14T06:44:11;24.30;53.70
25440;DHT22;13365;52.208;5.488;2023-06-14T06:46:38;24.20;55.10
25440;DHT22;13365;52.208;5.488;2023-06-14T06:49:06;24.20;55.00
25440;DHT22;13365;52.208;5.488;2023-06-14T06:51:31;24.40;54.60
25440;DHT22;13365;52.208;5.488;2023-06-14T06:53:57;24.30;54.10
25440;DHT22;13365;52.208;5.488;2023-06-14T06:56:23;24.20;54.20
25440;DHT22;13365;52.208;5.488;2023-06-14T06:58:50;24.10;55.10
25440;DHT22;13365;52.208;5.488;2023-06-14T07:01:16;24.20;56.00
25440;DHT22;13365;52.208;5.488;2023-06-14T07:03:42;24.50;55.20
25440;DHT22;13365;52.208;5.488;2023-06-14T07:06:07;24.90;54.80
25440;DHT22;13365;52.208;5.488;2023-06-14T07:08:33;25.30;53.30
25440;DHT22;13365;52.208;5.488;2023-06-14T07:10:59;25.60;53.00
25440;DHT22;13365;52.208;5.488;2023-06-14T07:13:25;25.60;52.40
25440;DHT22;13365;52.208;5.488;2023-06-14T07:15:50;25.50;53.30
25440;DHT22;13365;52.208;5.488;2023-06-14T07:18:18;25.80;53.10
25440;DHT22;13365;52.208;5.488;2023-06-14T07:20:44;26.10;51.70
25440;DHT22;13365;52.208;5.488;2023-06-14T07:23:10;26.20;50.60
25440;DHT22;13365;52.208;5.488;2023-06-14T07:25:36;26.20;51.40
25440;DHT22;13365;52.208;5.488;2023-06-14T07:28:01;26.20;51.10
25440;DHT22;13365;52.208;5.488;2023-06-14T07:30:27;26.50;51.20
25440;DHT22;13365;52.208;5.488;2023-06-14T07:32:55;26.90;50.20
25440;DHT22;13365;52.208;5.488;2023-06-14T07:35:20;27.20;49.50
25440;DHT22;13365;52.208;5.488;2023-06-14T07:37:46;27.50;49.20
25440;DHT22;13365;52.208;5.488;2023-06-14T07:40:13;27.90;49.20
25440;DHT22;13365;52.208;5.488;2023-06-14T07:42:38;28.20;48.10
25440;DHT22;13365;52.208;5.488;2023-06-14T07:45:04;28.30;48.20
25440;DHT22;13365;52.208;5.488;2023-06-14T07:47:30;28.60;46.60
25440;DHT22;13365;52.208;5.488;2023-06-14T07:49:56;28.70;45.50
25440;DHT22;13365;52.208;5.488;2023-06-14T07:52:21;28.90;44.90
25440;DHT22;13365;52.208;5.488;2023-06-14T07:54:47;28.90;44.20
25440;DHT22;13365;52.208;5.488;2023-06-14T07:57:13;29.10;44.90
25440;DHT22;13365;52.208;5.488;2023-06-14T07:59:38;29.30;44.20
25440;DHT22;13365;52.208;5.488;2023-06-14T08:02:04;29.50;44.40
25440;DHT22;13365;52.208;5.488;2023-06-14T08:04:29;29.60;44.10
25440;DHT22;13365;52.208;5.488;2023-06-14T08:06:56;29.60;45.40
25440;DHT22;13365;52.208;5.488;2023-06-14T08:09:21;29.80;44.50
25440;DHT22;13365;52.208;5.488;2023-06-14T08:11:48;29.80;44.30
25440;DHT22;13365;52.208;5.488;2023-06-14T08:14:13;29.90;43.70
25440;DHT22;13365;52.208;5.488;2023-06-14T08:16:39;30.00;45.60
25440;DHT22;13365;52.208;5.488;2023-06-14T08:19:04;30.20;45.20
25440;DHT22;13365;52.208;5.488;2023-06-14T08:21:30;30.50;44.50
25440;DHT22;13365;52.208;5.488;2023-06-14T08:23:59;30.70;43.30
25440;DHT22;13365;52.208;5.488;2023-06-14T08:26:25;30.90;40.80
25440;DHT22;13365;52.208;5.488;2023-06-14T08:28:54;31.00;42.50
25440;DHT22;13365;52.208;5.488;2023-06-14T08:31:20;31.10;43.10
25440;DHT22;13365;52.208;5.488;2023-06-14T08:33:46;31.30;43.40
25440;DHT22;13365;52.208;5.488;2023-06-14T08:36:11;31.70;41.90
25440;DHT22;13365;52.208;5.488;2023-06-14T08:38:38;32.00;42.90
25440;DHT22;13365;52.208;5.488;2023-06-14T08:41:05;32.30;41.60
25440;DHT22;13365;52.208;5.488;2023-06-14T08:43:32;32.30;42.50
25440;DHT22;13365;52.208;5.488;2023-06-14T08:46:03;32.50;40.90
25440;DHT22;13365;52.208;5.488;2023-06-14T08:48:29;32.60;39.10
25440;DHT22;13365;52.208;5.488;2023-06-14T08:50:59;32.50;40.10
25440;DHT22;13365;52.208;5.488;2023-06-14T08:53:33;32.40;40.80
25440;DHT22;13365;52.208;5.488;2023-06-14T08:56:00;32.40;40.90
25440;DHT22;13365;52.208;5.488;2023-06-14T08:58:28;32.20;40.20
25440;DHT22;13365;52.208;5.488;2023-06-14T09:00:57;32.10;40.90
25440;DHT22;13365;52.208;5.488;2023-06-14T09:03:24;31.90;40.20
25440;DHT22;13365;52.208;5.488;2023-06-14T09:05:57;31.80;40.30
25440;DHT22;13365;52.208;5.488;2023-06-14T09:08:25;31.50;40.60
25440;DHT22;13365;52.208;5.488;2023-06-14T09:10:50;31.60;41.00
25440;DHT22;13365;52.208;5.488;2023-06-14T09:13:17;31.00;40.80
25440;DHT22;13365;52.208;5.488;2023-06-14T09:15:43;30.80;40.50
25440;DHT22;13365;52.208;5.488;2023-06-14T09:18:09;30.70;42.00
25440;DHT22;13365;52.208;5.488;2023-06-14T09:20:35;31.00;42.60
25440;DHT22;13365;52.208;5.488;2023-06-14T09:23:01;31.30;41.80
25440;DHT22;13365;52.208;5.488;2023-06-14T09:25:26;31.60;41.60
25440;DHT22;13365;52.208;5.488;2023-06-14T09:27:52;31.90;43.40
25440;DHT22;13365;52.208;5.488;2023-06-14T09:30:20;32.40;42.60
25440;DHT22;13365;52.208;5.488;2023-06-14T09:32:45;32.60;39.60
25440;DHT22;13365;52.208;5.488;2023-06-14T09:35:11;32.50;38.40
25440;DHT22;13365;52.208;5.488;2023-06-14T09:37:37;32.00;38.70
25440;DHT22;13365;52.208;5.488;2023-06-14T09:40:04;32.00;40.80
25440;DHT22;13365;52.208;5.488;2023-06-14T09:42:30;32.20;40.40
25440;DHT22;13365;52.208;5.488;2023-06-14T09:44:56;32.50;41.20
25440;DHT22;13365;52.208;5.488;2023-06-14T09:47:23;32.60;40.20
25440;DHT22;13365;52.208;5.488;2023-06-14T09:49:49;32.50;40.70
25440;DHT22;13365;52.208;5.488;2023-06-14T09:52:17;32.50;41.60
25440;DHT22;13365;52.208;5.488;2023-06-14T09:54:46;32.50;39.50
25440;DHT22;13365;52.208;5.488;2023-06-14T09:57:21;32.10;38.40
25440;DHT22;13365;52.208;5.488;2023-06-14T09:59:47;31.50;40.10
25440;DHT22;13365;52.208;5.488;2023-06-14T10:02:21;31.40;41.60
25440;DHT22;13365;52.208;5.488;2023-06-14T10:04:56;31.70;41.30
25440;DHT22;13365;52.208;5.488;2023-06-14T10:07:25;31.90;39.30
25440;DHT22;13365;52.208;5.488;2023-06-14T10:09:53;31.50;40.50
25440;DHT22;13365;52.208;5.488;2023-06-14T10:12:18;31.40;41.20
25440;DHT22;13365;52.208;5.488;2023-06-14T10:14:51;31.60;41.80
25440;DHT22;13365;52.208;5.488;2023-06-14T10:22:58;32.10;40.70
25440;DHT22;13365;52.208;5.488;2023-06-14T10:25:29;31.70;39.00
25440;DHT22;13365;52.208;5.488;2023-06-14T10:28:18;31.40;42.30
25440;DHT22;13365;52.208;5.488;2023-06-14T10:31:10;31.60;41.70
25440;DHT22;13365;52.208;5.488;2023-06-14T10:39:05;32.00;40.20
25440;DHT22;13365;52.208;5.488;2023-06-14T10:41:35;31.80;39.10
25440;DHT22;13365;52.208;5.488;2023-06-14T10:46:39;31.20;41.60
25440;DHT22;13365;52.208;5.488;2023-06-14T10:49:05;31.00;41.30
25440;DHT22;13365;52.208;5.488;2023-06-14T10:51:42;30.90;41.80
25440;DHT22;13365;52.208;5.488;2023-06-14T10:54:12;31.30;42.30
25440;DHT22;13365;52.208;5.488;2023-06-14T10:56:54;31.60;41.60
25440;DHT22;13365;52.208;5.488;2023-06-14T10:59:20;31.90;42.60
25440;DHT22;13365;52.208;5.488;2023-06-14T11:04:50;32.00;41.70
25440;DHT22;13365;52.208;5.488;2023-06-14T11:12:41;31.00;42.90
25440;DHT22;13365;52.208;5.488;2023-06-14T11:15:09;30.60;41.80
25440;DHT22;13365;52.208;5.488;2023-06-14T11:17:35;30.30;41.50
25440;DHT22;13365;52.208;5.488;2023-06-14T11:20:10;30.40;44.40
25440;DHT22;13365;52.208;5.488;2023-06-14T11:22:41;30.70;41.80
25440;DHT22;13365;52.208;5.488;2023-06-14T11:25:11;30.60;42.00
25440;DHT22;13365;52.208;5.488;2023-06-14T11:27:37;30.30;40.70
25440;DHT22;13365;52.208;5.488;2023-06-14T11:30:06;30.30;40.90
25440;DHT22;13365;52.208;5.488;2023-06-14T11:32:32;30.30;42.50
25440;DHT22;13365;52.208;5.488;2023-06-14T11:34:57;30.10;42.20
25440;DHT22;13365;52.208;5.488;2023-06-14T11:37:25;30.30;42.10
25440;DHT22;13365;52.208;5.488;2023-06-14T11:39:59;30.70;43.70
25440;DHT22;13365;52.208;5.488;2023-06-14T11:42:28;31.20;41.80
25440;DHT22;13365;52.208;5.488;2023-06-14T11:44:54;31.20;41.70
25440;DHT22;13365;52.208;5.488;2023-06-14T11:47:20;31.10;40.30
25440;DHT22;13365;52.208;5.488;2023-06-14T11:49:46;31.50;41.10
25440;DHT22;13365;52.208;5.488;2023-06-14T11:52:12;31.90;41.30
25440;DHT22;13365;52.208;5.488;2023-06-14T11:54:38;32.30;41.10
25440;DHT22;13365;52.208;5.488;2023-06-14T11:57:06;32.60;40.30
25440;DHT22;13365;52.208;5.488;2023-06-14T11:59:37;32.20;40.00
25440;DHT22;13365;52.208;5.488;2023-06-14T12:02:03;32.00;41.00
25440;DHT22;13365;52.208;5.488;2023-06-14T12:04:29;31.70;39.80
25440;DHT22;13365;52.208;5.488;2023-06-14T12:06:55;31.10;40.90
25440;DHT22;13365;52.208;5.488;2023-06-14T12:09:23;31.20;42.80
25440;DHT22;13365;52.208;5.488;2023-06-14T12:11:49;31.40;42.10
25440;DHT22;13365;52.208;5.488;2023-06-14T12:14:15;31.50;41.80
25440;DHT22;13365;52.208;5.488;2023-06-14T12:16:42;31.80;42.80
25440;DHT22;13365;52.208;5.488;2023-06-14T12:19:13;32.10;39.60
25440;DHT22;13365;52.208;5.488;2023-06-14T12:21:39;32.10;39.90
25440;DHT22;13365;52.208;5.488;2023-06-14T12:24:06;32.10;39.90
25440;DHT22;13365;52.208;5.488;2023-06-14T12:26:38;31.50;41.00
25440;DHT22;13365;52.208;5.488;2023-06-14T12:29:05;31.10;41.50
25440;DHT22;13365;52.208;5.488;2023-06-14T12:31:32;30.70;42.90
25440;DHT22;13365;52.208;5.488;2023-06-14T12:33:59;30.60;42.80
25440;DHT22;13365;52.208;5.488;2023-06-14T12:36:25;30.30;41.90
25440;DHT22;13365;52.208;5.488;2023-06-14T12:38:51;29.90;43.80
25440;DHT22;13365;52.208;5.488;2023-06-14T12:41:20;30.00;43.30
25440;DHT22;13365;52.208;5.488;2023-06-14T12:43:49;29.90;42.70
25440;DHT22;13365;52.208;5.488;2023-06-14T12:46:15;29.80;42.70
25440;DHT22;13365;52.208;5.488;2023-06-14T12:48:41;30.00;42.90
25440;DHT22;13365;52.208;5.488;2023-06-14T12:51:06;30.20;41.50
25440;DHT22;13365;52.208;5.488;2023-06-14T12:53:32;30.20;42.00
25440;DHT22;13365;52.208;5.488;2023-06-14T12:55:57;30.20;42.50
25440;DHT22;13365;52.208;5.488;2023-06-14T12:58:23;30.40;39.70
25440;DHT22;13365;52.208;5.488;2023-06-14T13:00:49;30.20;40.60
25440;DHT22;13365;52.208;5.488;2023-06-14T13:03:15;30.10;40.50
25440;DHT22;13365;52.208;5.488;2023-06-14T13:05:41;30.20;42.60
25440;DHT22;13365;52.208;5.488;2023-06-14T13:08:07;30.40;40.80
25440;DHT22;13365;52.208;5.488;2023-06-14T13:10:34;30.20;41.50
25440;DHT22;13365;52.208;5.488;2023-06-14T13:12:59;29.90;41.60
25440;DHT22;13365;52.208;5.488;2023-06-14T13:15:26;29.90;43.00
25440;DHT22;13365;52.208;5.488;2023-06-14T13:17:52;29.90;40.60
25440;DHT22;13365;52.208;5.488;2023-06-14T13:20:17;30.40;41.70
25440;DHT22;13365;52.208;5.488;2023-06-14T13:22:43;31.00;41.90
25440;DHT22;13365;52.208;5.488;2023-06-14T13:25:09;30.70;40.60
25440;DHT22;13365;52.208;5.488;2023-06-14T13:27:34;30.60;40.50
25440;DHT22;13365;52.208;5.488;2023-06-14T13:30:00;30.80;40.50
25440;DHT22;13365;52.208;5.488;2023-06-14T13:32:26;30.80;39.70
25440;DHT22;13365;52.208;5.488;2023-06-14T13:34:51;30.70;40.70
25440;DHT22;13365;52.208;5.488;2023-06-14T13:37:17;30.80;40.50
25440;DHT22;13365;52.208;5.488;2023-06-14T13:39:42;30.80;42.20
25440;DHT22;13365;52.208;5.488;2023-06-14T13:42:08;31.10;40.90
25440;DHT22;13365;52.208;5.488;2023-06-14T13:44:34;31.60;41.00
25440;DHT22;13365;52.208;5.488;2023-06-14T13:47:00;31.50;39.40
25440;DHT22;13365;52.208;5.488;2023-06-14T13:49:25;30.90;39.90
25440;DHT22;13365;52.208;5.488;2023-06-14T13:51:51;30.40;41.80
25440;DHT22;13365;52.208;5.488;2023-06-14T13:54:19;30.30;41.20
25440;DHT22;13365;52.208;5.488;2023-06-14T13:56:45;30.10;41.80
25440;DHT22;13365;52.208;5.488;2023-06-14T13:59:11;29.90;42.40
25440;DHT22;13365;52.208;5.488;2023-06-14T14:01:37;29.50;43.30
25440;DHT22;13365;52.208;5.488;2023-06-14T14:04:03;29.80;42.00
25440;DHT22;13365;52.208;5.488;2023-06-14T14:06:30;30.00;42.50
25440;DHT22;13365;52.208;5.488;2023-06-14T14:08:56;30.00;41.00
25440;DHT22;13365;52.208;5.488;2023-06-14T14:11:21;29.50;43.20
25440;DHT22;13365;52.208;5.488;2023-06-14T14:13:47;29.50;42.50
25440;DHT22;13365;52.208;5.488;2023-06-14T14:16:13;29.80;42.90
25440;DHT22;13365;52.208;5.488;2023-06-14T14:18:39;29.50;42.50
25440;DHT22;13365;52.208;5.488;2023-06-14T14:21:04;29.00;43.10
25440;DHT22;13365;52.208;5.488;2023-06-14T14:23:30;28.90;44.40
25440;DHT22;13365;52.208;5.488;2023-06-14T14:25:56;29.00;43.40
25440;DHT22;13365;52.208;5.488;2023-06-14T14:28:22;28.90;43.10
25440;DHT22;13365;52.208;5.488;2023-06-14T14:30:47;28.70;43.30
25440;DHT22;13365;52.208;5.488;2023-06-14T14:33:14;28.40;43.90
25440;DHT22;13365;52.208;5.488;2023-06-14T14:35:45;28.60;45.10
25440;DHT22;13365;52.208;5.488;2023-06-14T14:38:11;28.90;45.30
25440;DHT22;13365;52.208;5.488;2023-06-14T14:40:37;29.00;42.40
25440;DHT22;13365;52.208;5.488;2023-06-14T14:43:02;29.00;43.10
25440;DHT22;13365;52.208;5.488;2023-06-14T14:45:28;29.10;42.70
25440;DHT22;13365;52.208;5.488;2023-06-14T14:47:54;29.10;43.60
25440;DHT22;13365;52.208;5.488;2023-06-14T14:50:19;29.30;43.40
25440;DHT22;13365;52.208;5.488;2023-06-14T14:52:45;29.00;43.50
25440;DHT22;13365;52.208;5.488;2023-06-14T14:55:11;28.80;43.30
25440;DHT22;13365;52.208;5.488;2023-06-14T14:57:36;28.80;43.30
25440;DHT22;13365;52.208;5.488;2023-06-14T15:00:03;29.30;43.00
25440;DHT22;13365;52.208;5.488;2023-06-14T15:02:29;29.50;43.30
25440;DHT22;13365;52.208;5.488;2023-06-14T15:04:55;30.10;42.30
25440;DHT22;13365;52.208;5.488;2023-06-14T15:07:26;30.40;41.80
25440;DHT22;13365;52.208;5.488;2023-06-14T15:09:52;30.90;41.20
25440;DHT22;13365;52.208;5.488;2023-06-14T15:12:17;31.50;38.30
25440;DHT22;13365;52.208;5.488;2023-06-14T15:14:45;32.40;38.40
25440;DHT22;13365;52.208;5.488;2023-06-14T15:17:10;33.30;37.30
25440;DHT22;13365;52.208;5.488;2023-06-14T15:19:36;33.90;35.80
25440;DHT22;13365;52.208;5.488;2023-06-14T15:22:01;34.30;36.60
25440;DHT22;13365;52.208;5.488;2023-06-14T15:24:27;34.80;35.70
25440;DHT22;13365;52.208;5.488;2023-06-14T15:26:53;35.80;36.30
25440;DHT22;13365;52.208;5.488;2023-06-14T15:29:18;36.60;34.60
25440;DHT22;13365;52.208;5.488;2023-06-14T15:31:44;37.20;34.30
25440;DHT22;13365;52.208;5.488;2023-06-14T15:34:09;37.20;34.10
25440;DHT22;13365;52.208;5.488;2023-06-14T15:36:35;36.50;33.30
25440;DHT22;13365;52.208;5.488;2023-06-14T15:39:00;35.60;33.90
25440;DHT22;13365;52.208;5.488;2023-06-14T15:41:26;34.60;36.40
25440;DHT22;13365;52.208;5.488;2023-06-14T15:43:51;33.30;35.70
25440;DHT22;13365;52.208;5.488;2023-06-14T15:46:20;31.90;37.40
25440;DHT22;13365;52.208;5.488;2023-06-14T15:48:46;30.70;38.50
25440;DHT22;13365;52.208;5.488;2023-06-14T15:51:12;30.10;39.90